Time;durP1;ratioP1;P1;durP2;ratioP2;P2;SDS_P1;SDS_P2;PMS_P1;PMS_P2;Temp;Humidity;BMP_temperature;BMP_pressure;BME280_temperature;BME280_humidity;BME280_pressure;Samples;Min_cycle;Max_cycle;Signal;HPM_P1;HPM_P2
2022/11/30 00:00:40;;;;;;;105.13;28.17;;;;;;;;;;6252843;28;20064;-61
2022/11/30 00:03:55;;;;;;;116.38;28.10;;;;;;;;;;6246929;28;20063;-61
2022/11/30 00:06:56;;;;;;;121.28;30.40;;;;;;;;;;6246542;28;20050;-74
2022/11/30 00:09:57;;;;;;;104.15;27.10;;;;;;;;;;6245303;28;20391;-61
2022/11/30 00:12:57;;;;;;;108.55;28.65;;;;;;;;;;6246138;28;20052;-61
2022/11/30 00:16:01;;;;;;;107.00;27.95;;;;;;;;;;6250225;28;20046;-78
2022/11/30 00:19:01;;;;;;;113.18;29.00;;;;;;;;;;6250362;28;20068;-61
2022/11/30 00:22:02;;;;;;;120.82;29.70;;;;;;;;;;6246924;28;20102;-62
2022/11/30 00:25:03;;;;;;;111.40;30.10;;;;;;;;;;6259131;28;20538;-61
2022/11/30 00:28:04;;;;;;;116.57;29.23;;;;;;;;;;6243610;28;20061;-63
2022/11/30 00:31:09;;;;;;;118.90;30.17;;;;;;;;;;6247268;28;20374;-68
2022/11/30 00:34:09;;;;;;;132.30;34.20;;;;;;;;;;6249221;28;20058;-64
2022/11/30 00:37:10;;;;;;;134.30;36.60;;;;;;;;;;6246089;28;20069;-62
2022/11/30 00:40:11;;;;;;;118.50;32.85;;;;;;;;;;6245215;28;20041;-61
2022/11/30 00:43:12;;;;;;;127.78;31.08;;;;;;;;;;6247138;28;20053;-75
2022/11/30 00:46:13;;;;;;;120.28;33.20;;;;;;;;;;6244605;28;20100;-77
2022/11/30 00:49:13;;;;;;;131.18;37.85;;;;;;;;;;6247931;28;20037;-61
2022/11/30 00:52:14;;;;;;;135.02;34.45;;;;;;;;;;6259847;28;20037;-67
2022/11/30 00:55:14;;;;;;;123.28;31.02;;;;;;;;;;6254900;28;20045;-74
2022/11/30 00:58:16;;;;;;;134.90;34.33;;;;;;;;;;6246567;28;20518;-63
2022/11/30 01:01:16;;;;;;;125.40;30.60;;;;;;;;;;6254172;28;20048;-61
2022/11/30 01:04:17;;;;;;;114.43;30.58;;;;;;;;;;6243557;28;20045;-61
2022/11/30 01:07:17;;;;;;;117.20;30.13;;;;;;;;;;6245780;28;20048;-77
2022/11/30 01:10:18;;;;;;;111.57;28.75;;;;;;;;;;6243192;28;20053;-72
2022/11/30 01:13:19;;;;;;;120.30;30.38;;;;;;;;;;6244011;28;20503;-78
2022/11/30 01:16:23;;;;;;;107.35;28.33;;;;;;;;;;6246894;28;20055;-61
2022/11/30 01:19:23;;;;;;;111.57;28.52;;;;;;;;;;6245043;28;20144;-67
2022/11/30 01:22:24;;;;;;;116.50;30.67;;;;;;;;;;6244439;28;20047;-61
2022/11/30 01:25:24;;;;;;;115.78;28.15;;;;;;;;;;6249203;28;20060;-61
2022/11/30 01:28:25;;;;;;;115.70;29.83;;;;;;;;;;6251004;28;20041;-61
2022/11/30 01:31:25;;;;;;;121.03;31.60;;;;;;;;;;6251051;28;20382;-61
2022/11/30 01:34:26;;;;;;;125.57;32.58;;;;;;;;;;6251456;28;20116;-77
2022/11/30 01:37:28;;;;;;;111.70;31.02;;;;;;;;;;6247885;28;20048;-61
2022/11/30 01:40:29;;;;;;;120.03;33.40;;;;;;;;;;6251553;28;20065;-61
2022/11/30 01:43:45;;;;;;;124.35;31.10;;;;;;;;;;6251942;28;20056;-61
2022/11/30 01:47:02;;;;;;;129.88;32.60;;;;;;;;;;6252621;28;20817;-61
2022/11/30 01:50:08;;;;;;;114.68;30.08;;;;;;;;;;6254029;28;20048;-61
2022/11/30 01:53:11;;;;;;;117.40;31.30;;;;;;;;;;6249487;28;20041;-63
2022/11/30 01:56:11;;;;;;;;;;;;;;;;;;6251956;28;20045;-61
2022/11/30 01:59:13;;;;;;;116.13;29.92;;;;;;;;;;6252636;28;19932;-71
2022/11/30 02:02:13;;;;;;;109.60;29.13;;;;;;;;;;6250815;28;21100;-61
2022/11/30 02:05:15;;;;;;;126.85;30.73;;;;;;;;;;6249681;28;20060;-78
2022/11/30 02:08:17;;;;;;;122.60;31.85;;;;;;;;;;6251059;28;20477;-62
2022/11/30 02:11:18;;;;;;;134.77;38.38;;;;;;;;;;6254050;28;20045;-61
2022/11/30 02:14:32;;;;;;;115.72;28.63;;;;;;;;;;6270785;28;20060;-61
2022/11/30 02:17:49;;;;;;;121.93;33.88;;;;;;;;;;6249857;28;20055;-70
2022/11/30 02:21:07;;;;;;;124.40;30.02;;;;;;;;;;6248540;28;20411;-61
2022/11/30 02:24:33;;;;;;;131.23;34.70;;;;;;;;;;6249534;28;20045;-61
2022/11/30 02:28:04;;;;;;;129.05;33.22;;;;;;;;;;6260369;28;20088;-61
2022/11/30 02:31:10;;;;;;;123.97;32.38;;;;;;;;;;6260195;28;20048;-62
2022/11/30 02:34:13;;;;;;;114.88;31.00;;;;;;;;;;6247015;28;20056;-62
2022/11/30 02:37:15;;;;;;;125.00;33.33;;;;;;;;;;6252237;28;20045;-61
2022/11/30 02:40:17;;;;;;;133.23;36.07;;;;;;;;;;6248106;28;20052;-62
2022/11/30 02:43:19;;;;;;;;;;;;;;;;;;6246149;28;20401;-61
2022/11/30 02:46:30;;;;;;;113.63;27.95;;;;;;;;;;6250347;28;19928;-61
2022/11/30 02:49:48;;;;;;;113.28;30.33;;;;;;;;;;6248433;28;20044;-61
2022/11/30 02:52:50;;;;;;;109.75;29.92;;;;;;;;;;6247104;28;20048;-61
2022/11/30 02:55:52;;;;;;;111.50;32.05;;;;;;;;;;6249467;28;20347;-61
2022/11/30 02:58:53;;;;;;;117.50;31.00;;;;;;;;;;6249735;28;20202;-61
2022/11/30 03:01:54;;;;;;;122.53;30.63;;;;;;;;;;6248615;28;20132;-66
2022/11/30 03:04:54;;;;;;;119.35;32.50;;;;;;;;;;6248302;28;20045;-62
2022/11/30 03:07:55;;;;;;;123.43;31.08;;;;;;;;;;6250655;28;20048;-61
2022/11/30 03:10:55;;;;;;;124.10;34.50;;;;;;;;;;6256984;28;20049;-61
2022/11/30 03:13:56;;;;;;;118.13;32.67;;;;;;;;;;6267137;28;20144;-64
2022/11/30 03:16:56;;;;;;;131.63;33.65;;;;;;;;;;6257153;28;20041;-62
2022/11/30 03:19:57;;;;;;;127.35;33.40;;;;;;;;;;6248101;28;20061;-62
2022/11/30 03:22:59;;;;;;;132.18;37.35;;;;;;;;;;6250247;28;20110;-61
2022/11/30 03:26:00;;;;;;;;;;;;;;;;;;6248238;28;20577;-61
2022/11/30 03:29:01;;;;;;;118.93;30.83;;;;;;;;;;6249626;28;19929;-61
2022/11/30 03:32:02;;;;;;;126.18;33.42;;;;;;;;;;6249764;28;20144;-61
2022/11/30 03:35:02;;;;;;;124.07;34.53;;;;;;;;;;6235459;28;20045;-62
2022/11/30 03:38:03;;;;;;;113.88;30.70;;;;;;;;;;6245497;28;20487;-61
2022/11/30 03:41:06;;;;;;;124.57;33.85;;;;;;;;;;6248761;28;20064;-61
2022/11/30 03:44:07;;;;;;;116.57;32.78;;;;;;;;;;6262789;28;20061;-61
2022/11/30 03:47:08;;;;;;;122.00;37.90;;;;;;;;;;6257498;28;20159;-61
2022/11/30 03:50:08;;;;;;;119.82;35.33;;;;;;;;;;6248898;28;20155;-62
2022/11/30 03:53:09;;;;;;;118.00;30.17;;;;;;;;;;6248050;28;20061;-62
2022/11/30 03:56:11;;;;;;;119.07;28.55;;;;;;;;;;6254636;28;20323;-61
2022/11/30 03:59:11;;;;;;;118.50;32.38;;;;;;;;;;6245461;28;20052;-61
2022/11/30 04:02:12;;;;;;;114.97;31.40;;;;;;;;;;6247580;28;20499;-61
2022/11/30 04:05:12;;;;;;;115.65;32.80;;;;;;;;;;6248352;28;20339;-64
2022/11/30 04:08:13;;;;;;;117.35;30.50;;;;;;;;;;6248663;28;20186;-61
2022/11/30 04:11:14;;;;;;;115.10;30.52;;;;;;;;;;6247546;28;20168;-63
2022/11/30 04:14:15;;;;;;;125.35;32.20;;;;;;;;;;6245426;28;20045;-62
2022/11/30 04:17:15;;;;;;;134.98;33.88;;;;;;;;;;6248354;28;20052;-60
2022/11/30 04:20:16;;;;;;;121.57;30.23;;;;;;;;;;6248464;28;20052;-60
2022/11/30 04:23:17;;;;;;;122.32;31.23;;;;;;;;;;6249757;28;20448;-68
2022/11/30 04:26:18;;;;;;;115.57;32.20;;;;;;;;;;6246521;28;20523;-62
2022/11/30 04:29:18;;;;;;;116.30;32.78;;;;;;;;;;6262814;28;20053;-60
2022/11/30 04:32:19;;;;;;;103.35;27.98;;;;;;;;;;6259123;28;20179;-61
2022/11/30 04:35:19;;;;;;;106.60;31.25;;;;;;;;;;6249354;28;20515;-61
2022/11/30 04:38:21;;;;;;;117.57;29.70;;;;;;;;;;6246864;28;20056;-61
2022/11/30 04:41:21;;;;;;;109.88;30.92;;;;;;;;;;6247866;28;20061;-60
2022/11/30 04:44:22;;;;;;;112.88;28.58;;;;;;;;;;6247192;28;20595;-63
2022/11/30 04:47:22;;;;;;;102.38;27.15;;;;;;;;;;6248404;28;20048;-61
2022/11/30 04:50:23;;;;;;;107.50;26.17;;;;;;;;;;6249763;28;20065;-61
2022/11/30 04:53:23;;;;;;;108.88;28.83;;;;;;;;;;6247376;28;20052;-60
2022/11/30 04:56:24;;;;;;;110.15;27.40;;;;;;;;;;6246768;28;20148;-61
2022/11/30 04:59:24;;;;;;;106.88;27.65;;;;;;;;;;6249240;28;20054;-60
2022/11/30 05:02:28;;;;;;;113.53;29.08;;;;;;;;;;6266185;28;20496;-68
2022/11/30 05:05:28;;;;;;;118.00;33.90;;;;;;;;;;6253101;28;20480;-60
2022/11/30 05:08:29;;;;;;;116.00;29.13;;;;;;;;;;6250437;28;20059;-61
2022/11/30 05:11:30;;;;;;;110.30;29.80;;;;;;;;;;6262517;28;20033;-61
2022/11/30 05:14:30;;;;;;;111.07;30.55;;;;;;;;;;6251151;28;20195;-60
2022/11/30 05:17:32;;;;;;;102.20;26.02;;;;;;;;;;6253043;28;20048;-60
2022/11/30 05:20:33;;;;;;;102.05;26.77;;;;;;;;;;6257293;28;20053;-61
2022/11/30 05:23:33;;;;;;;102.15;25.90;;;;;;;;;;6251655;28;20538;-60
2022/11/30 05:26:35;;;;;;;97.82;26.88;;;;;;;;;;6250956;28;20045;-60
2022/11/30 05:29:36;;;;;;;106.83;26.50;;;;;;;;;;6262090;28;20049;-60
2022/11/30 05:32:37;;;;;;;105.82;26.27;;;;;;;;;;6264584;28;20045;-60
2022/11/30 05:35:37;;;;;;;103.18;26.92;;;;;;;;;;6248347;28;20044;-62
2022/11/30 05:38:38;;;;;;;115.10;27.52;;;;;;;;;;6249838;28;20061;-62
2022/11/30 05:41:38;;;;;;;104.78;25.77;;;;;;;;;;6253630;28;20107;-71
2022/11/30 05:44:39;;;;;;;107.68;28.55;;;;;;;;;;6248942;28;20480;-66
2022/11/30 05:47:39;;;;;;;92.70;25.67;;;;;;;;;;6254923;28;20060;-62
2022/11/30 05:50:40;;;;;;;100.10;25.00;;;;;;;;;;6266846;28;20061;-62
2022/11/30 05:53:42;;;;;;;105.65;27.95;;;;;;;;;;6252448;28;20041;-60
2022/11/30 05:56:43;;;;;;;109.82;29.13;;;;;;;;;;6252221;28;20045;-61
2022/11/30 05:59:43;;;;;;;111.35;30.08;;;;;;;;;;6250023;28;20049;-63
2022/11/30 06:02:44;;;;;;;118.30;31.55;;;;;;;;;;6249707;28;20487;-61
2022/11/30 06:05:44;;;;;;;113.35;29.92;;;;;;;;;;6247351;28;20045;-62
2022/11/30 06:08:47;;;;;;;99.68;28.50;;;;;;;;;;6250466;28;20111;-61
2022/11/30 06:11:47;;;;;;;103.63;32.50;;;;;;;;;;6267094;28;20135;-61
2022/11/30 06:14:49;;;;;;;96.85;26.55;;;;;;;;;;6253466;28;20064;-60
2022/11/30 06:17:50;;;;;;;105.40;27.70;;;;;;;;;;6249331;28;20128;-61
2022/11/30 06:20:50;;;;;;;99.80;27.55;;;;;;;;;;6247858;28;20484;-61
2022/11/30 06:23:51;;;;;;;96.97;25.23;;;;;;;;;;6251794;28;20037;-60
2022/11/30 06:26:52;;;;;;;107.70;30.65;;;;;;;;;;6250136;28;20041;-60
2022/11/30 06:29:52;;;;;;;99.38;27.65;;;;;;;;;;6252164;28;20052;-61
2022/11/30 06:32:53;;;;;;;93.45;25.40;;;;;;;;;;6251059;28;20053;-61
2022/11/30 06:35:53;;;;;;;114.63;28.70;;;;;;;;;;6249679;28;20041;-61
2022/11/30 06:38:54;;;;;;;153.02;38.67;;;;;;;;;;6247230;28;20049;-61
2022/11/30 06:41:55;;;;;;;130.10;36.00;;;;;;;;;;6249983;28;20068;-61
2022/11/30 06:44:56;;;;;;;131.45;31.02;;;;;;;;;;6248059;28;20126;-60
2022/11/30 06:47:56;;;;;;;110.63;31.63;;;;;;;;;;6250806;28;20049;-60
2022/11/30 06:50:57;;;;;;;118.80;29.08;;;;;;;;;;6249909;28;20045;-61
2022/11/30 06:53:58;;;;;;;160.15;40.95;;;;;;;;;;6248638;28;20106;-61
2022/11/30 06:57:00;;;;;;;107.43;30.27;;;;;;;;;;6249678;28;20041;-61
2022/11/30 07:00:00;;;;;;;111.43;31.07;;;;;;;;;;6251041;28;20053;-61
2022/11/30 07:03:02;;;;;;;107.45;27.63;;;;;;;;;;6249181;28;20051;-61
2022/11/30 07:06:11;;;;;;;118.20;30.00;;;;;;;;;;6247513;28;20191;-60
2022/11/30 07:09:12;;;;;;;108.43;27.75;;;;;;;;;;6269536;28;20055;-61
2022/11/30 07:12:12;;;;;;;118.32;29.70;;;;;;;;;;6268904;28;20053;-61
2022/11/30 07:15:13;;;;;;;107.28;29.35;;;;;;;;;;6268010;28;20052;-61
2022/11/30 07:18:14;;;;;;;118.20;29.85;;;;;;;;;;6251938;28;20377;-60
2022/11/30 07:21:14;;;;;;;125.65;32.72;;;;;;;;;;6251083;28;20563;-61
2022/11/30 07:27:34;;;;;;;113.10;30.67;;;;;;;;;;6248448;28;20041;-64
2022/11/30 07:30:35;;;;;;;116.80;31.15;;;;;;;;;;6249213;28;20673;-60
2022/11/30 07:33:35;;;;;;;136.82;32.20;;;;;;;;;;6254851;28;20175;-61
2022/11/30 07:36:36;;;;;;;143.85;35.70;;;;;;;;;;6257901;28;20049;-61
2022/11/30 07:39:37;;;;;;;164.85;39.25;;;;;;;;;;6261045;28;20123;-62
2022/11/30 07:42:37;;;;;;;122.40;32.45;;;;;;;;;;6248115;28;20049;-61
2022/11/30 07:45:38;;;;;;;116.45;30.80;;;;;;;;;;6247766;28;20045;-61
2022/11/30 07:48:39;;;;;;;124.35;30.42;;;;;;;;;;6250949;28;20104;-61
2022/11/30 07:51:40;;;;;;;137.35;34.25;;;;;;;;;;6247892;28;20047;-61
2022/11/30 07:54:40;;;;;;;106.70;26.88;;;;;;;;;;6245138;28;20045;-61
2022/11/30 07:57:41;;;;;;;107.30;28.65;;;;;;;;;;6248997;28;20037;-61
2022/11/30 08:00:41;;;;;;;122.65;31.15;;;;;;;;;;6250835;28;20053;-61
2022/11/30 08:03:42;;;;;;;104.13;24.77;;;;;;;;;;6251080;28;20068;-61
2022/11/30 08:06:43;;;;;;;113.00;29.60;;;;;;;;;;6247387;28;20045;-60
2022/11/30 08:09:44;;;;;;;109.43;27.75;;;;;;;;;;6252584;28;20051;-61
2022/11/30 08:12:44;;;;;;;126.45;30.20;;;;;;;;;;6255996;28;20452;-61
2022/11/30 08:15:45;;;;;;;103.15;25.40;;;;;;;;;;6248240;28;20032;-61
2022/11/30 08:18:46;;;;;;;115.80;25.70;;;;;;;;;;6248199;28;20087;-60
2022/11/30 08:21:47;;;;;;;104.73;27.70;;;;;;;;;;6246718;28;20041;-60
2022/11/30 08:24:47;;;;;;;103.78;27.42;;;;;;;;;;6257075;28;20306;-61
2022/11/30 08:27:48;;;;;;;114.40;28.23;;;;;;;;;;6264696;28;20103;-60
2022/11/30 08:30:48;;;;;;;105.97;27.45;;;;;;;;;;6264427;28;20801;-61
2022/11/30 08:33:53;;;;;;;121.70;31.80;;;;;;;;;;6260884;28;20083;-61
2022/11/30 08:36:54;;;;;;;113.75;29.33;;;;;;;;;;6246152;28;20523;-61
2022/11/30 08:39:55;;;;;;;112.60;30.52;;;;;;;;;;6249959;28;20128;-61
2022/11/30 08:42:57;;;;;;;100.90;29.00;;;;;;;;;;6246903;28;20408;-67
2022/11/30 08:46:00;;;;;;;117.57;30.35;;;;;;;;;;6249846;28;20462;-60
2022/11/30 08:49:01;;;;;;;103.80;29.77;;;;;;;;;;6260444;28;20041;-60
2022/11/30 08:52:02;;;;;;;127.78;33.50;;;;;;;;;;6266641;28;20115;-61
2022/11/30 08:55:02;;;;;;;135.65;37.28;;;;;;;;;;6265745;28;20486;-61
2022/11/30 08:58:03;;;;;;;110.20;30.38;;;;;;;;;;6265583;28;20040;-61
2022/11/30 09:01:24;;;;;;;100.68;27.33;;;;;;;;;;6266382;28;20044;-61
2022/11/30 09:04:27;;;;;;;97.78;29.65;;;;;;;;;;6266593;28;20134;-61
2022/11/30 09:07:27;;;;;;;113.68;33.28;;;;;;;;;;6265868;28;20600;-61
2022/11/30 09:10:28;;;;;;;128.43;35.53;;;;;;;;;;6266296;28;20056;-60
2022/11/30 09:13:28;;;;;;;120.82;32.03;;;;;;;;;;6253545;28;20056;-65
2022/11/30 09:16:30;;;;;;;83.93;24.35;;;;;;;;;;6252118;28;20329;-61
2022/11/30 09:19:30;;;;;;;88.70;25.25;;;;;;;;;;6249796;28;20158;-61
2022/11/30 09:22:31;;;;;;;91.35;24.55;;;;;;;;;;6249002;28;20043;-61
2022/11/30 09:25:31;;;;;;;101.65;26.85;;;;;;;;;;6240261;28;20041;-61
2022/11/30 09:28:33;;;;;;;91.90;26.02;;;;;;;;;;6243190;28;20048;-61
2022/11/30 09:31:33;;;;;;;100.40;28.63;;;;;;;;;;6241333;28;21753;-61
2022/11/30 09:34:34;;;;;;;84.75;24.55;;;;;;;;;;6242693;28;20088;-61
2022/11/30 09:37:35;;;;;;;105.45;29.60;;;;;;;;;;6251734;28;20044;-62
2022/11/30 09:40:39;;;;;;;101.40;28.75;;;;;;;;;;6251717;28;20059;-61
2022/11/30 09:44:00;;;;;;;109.13;30.15;;;;;;;;;;6249210;28;20054;-61
2022/11/30 09:47:06;;;;;;;94.22;24.85;;;;;;;;;;6261575;28;20132;-61
2022/11/30 09:50:21;;;;;;;90.07;24.00;;;;;;;;;;6256399;28;20104;-61
2022/11/30 09:53:37;;;;;;;89.38;24.83;;;;;;;;;;6251801;28;20078;-61
2022/11/30 09:56:39;;;;;;;96.63;27.67;;;;;;;;;;6245412;28;20081;-61
2022/11/30 09:59:47;;;;;;;84.47;25.00;;;;;;;;;;6257195;28;20052;-62
2022/11/30 10:02:50;;;;;;;100.43;28.15;;;;;;;;;;6270411;28;20061;-61
2022/11/30 10:06:10;;;;;;;87.68;26.00;;;;;;;;;;6265033;28;20045;-61
2022/11/30 10:09:36;;;;;;;83.03;23.85;;;;;;;;;;6252237;28;20496;-61
2022/11/30 10:12:40;;;;;;;97.18;26.77;;;;;;;;;;6251131;28;20053;-62
2022/11/30 10:16:11;;;;;;;81.45;23.50;;;;;;;;;;6241519;28;20056;-61
2022/11/30 10:19:24;;;;;;;80.45;22.10;;;;;;;;;;6253080;28;20059;-60
2022/11/30 10:22:27;;;;;;;86.93;24.75;;;;;;;;;;6251391;28;20053;-61
2022/11/30 10:25:52;;;;;;;80.28;22.52;;;;;;;;;;6251435;28;20055;-62
2022/11/30 10:28:56;;;;;;;101.70;25.00;;;;;;;;;;6252871;28;20316;-62
2022/11/30 10:32:00;;;;;;;82.30;25.02;;;;;;;;;;6251405;28;20051;-61
2022/11/30 10:35:17;;;;;;;98.32;24.80;;;;;;;;;;6250703;28;20053;-62
2022/11/30 10:38:25;;;;;;;94.82;24.80;;;;;;;;;;6252077;28;20042;-60
2022/11/30 10:41:32;;;;;;;105.93;27.48;;;;;;;;;;6250600;28;20057;-61
2022/11/30 10:44:38;;;;;;;104.97;28.08;;;;;;;;;;6251237;28;20064;-61
2022/11/30 10:47:47;;;;;;;108.25;28.05;;;;;;;;;;6252353;28;20055;-61
2022/11/30 10:50:50;;;;;;;107.47;27.05;;;;;;;;;;6241338;28;20048;-61
2022/11/30 10:53:50;;;;;;;102.25;26.77;;;;;;;;;;6252494;28;20080;-61
2022/11/30 10:56:51;;;;;;;103.75;29.50;;;;;;;;;;6250495;28;20052;-61
2022/11/30 10:59:54;;;;;;;107.03;28.42;;;;;;;;;;6247111;28;20046;-61
2022/11/30 11:02:54;;;;;;;123.07;32.15;;;;;;;;;;6251932;28;20045;-61
2022/11/30 11:06:11;;;;;;;118.35;31.40;;;;;;;;;;6250032;28;20411;-62
2022/11/30 11:09:39;;;;;;;138.07;34.67;;;;;;;;;;6245975;28;20029;-61
2022/11/30 11:12:47;;;;;;;106.72;28.27;;;;;;;;;;6249815;28;20596;-60
2022/11/30 11:15:59;;;;;;;121.15;34.55;;;;;;;;;;6249322;28;20042;-61
2022/11/30 11:18:59;;;;;;;107.53;32.17;;;;;;;;;;6249438;28;20060;-62
2022/11/30 11:22:21;;;;;;;96.05;29.95;;;;;;;;;;6250938;28;20049;-62
2022/11/30 11:25:26;;;;;;;85.82;25.85;;;;;;;;;;6248955;28;20052;-61
2022/11/30 11:28:28;;;;;;;90.53;28.63;;;;;;;;;;6249163;28;20126;-62
2022/11/30 11:31:39;;;;;;;92.60;27.02;;;;;;;;;;6250308;28;20049;-61
2022/11/30 11:34:41;;;;;;;85.27;25.57;;;;;;;;;;6250204;28;20143;-60
2022/11/30 11:37:50;;;;;;;90.65;24.38;;;;;;;;;;6248218;28;20131;-60
2022/11/30 11:41:00;;;;;;;85.80;26.55;;;;;;;;;;6249939;28;20045;-60
2022/11/30 11:44:10;;;;;;;103.45;28.65;;;;;;;;;;6259056;28;20045;-61
2022/11/30 11:47:24;;;;;;;85.07;25.92;;;;;;;;;;6266867;28;20047;-62
2022/11/30 11:50:33;;;;;;;86.90;23.90;;;;;;;;;;6267716;28;20037;-62
2022/11/30 11:53:50;;;;;;;86.85;25.58;;;;;;;;;;6267398;28;20051;-61
2022/11/30 11:56:53;;;;;;;86.03;24.35;;;;;;;;;;6258893;28;20053;-62
2022/11/30 12:00:09;;;;;;;88.20;24.80;;;;;;;;;;6248576;28;20049;-62
2022/11/30 12:03:18;;;;;;;79.78;24.60;;;;;;;;;;6251914;28;20045;-62
2022/11/30 12:06:20;;;;;;;87.75;26.67;;;;;;;;;;6250201;28;20048;-62
2022/11/30 12:09:30;;;;;;;90.67;25.13;;;;;;;;;;6248923;28;20053;-63
2022/11/30 12:12:31;;;;;;;76.47;22.35;;;;;;;;;;6249327;28;20298;-62
2022/11/30 12:15:40;;;;;;;77.68;24.70;;;;;;;;;;6250759;28;20114;-62
2022/11/30 12:19:06;;;;;;;80.07;24.33;;;;;;;;;;6248129;28;20410;-63
2022/11/30 12:22:12;;;;;;;80.65;25.55;;;;;;;;;;6246303;28;20124;-62
2022/11/30 12:25:25;;;;;;;80.32;24.80;;;;;;;;;;6251049;28;20051;-63
2022/11/30 12:29:07;;;;;;;104.53;31.67;;;;;;;;;;6239994;28;20049;-62
2022/11/30 12:32:47;;;;;;;98.80;32.55;;;;;;;;;;6251699;28;20076;-74
2022/11/30 12:35:55;;;;;;;94.53;29.52;;;;;;;;;;6238728;28;20047;-65
2022/11/30 12:38:59;;;;;;;105.53;32.03;;;;;;;;;;6251421;28;20056;-65
2022/11/30 12:42:12;;;;;;;100.38;29.40;;;;;;;;;;6253749;28;20046;-64
2022/11/30 12:45:43;;;;;;;88.78;27.63;;;;;;;;;;6252971;28;20713;-75
2022/11/30 12:49:18;;;;;;;80.13;25.50;;;;;;;;;;6253026;28;20049;-73
2022/11/30 12:52:50;;;;;;;94.38;28.50;;;;;;;;;;6255031;28;21063;-76
2022/11/30 12:56:03;;;;;;;96.85;28.48;;;;;;;;;;6251707;28;20269;-69
2022/11/30 12:59:26;;;;;;;95.97;29.73;;;;;;;;;;6252677;28;20041;-69
2022/11/30 13:02:50;;;;;;;94.15;28.13;;;;;;;;;;6257303;28;20079;-68
2022/11/30 13:05:59;;;;;;;99.60;28.25;;;;;;;;;;6250084;28;20055;-73
2022/11/30 13:09:03;;;;;;;96.63;30.88;;;;;;;;;;6254575;28;20508;-70
2022/11/30 13:12:12;;;;;;;95.85;29.35;;;;;;;;;;6254702;28;20044;-63
2022/11/30 13:15:22;;;;;;;84.63;26.98;;;;;;;;;;6251945;28;20041;-61
2022/11/30 13:18:23;;;;;;;85.70;27.58;;;;;;;;;;6252072;28;20444;-68
2022/11/30 13:21:53;;;;;;;91.30;26.67;;;;;;;;;;6254377;28;20117;-66
2022/11/30 13:25:14;;;;;;;71.45;23.85;;;;;;;;;;6248197;28;20913;-69
2022/11/30 13:28:52;;;;;;;86.30;25.70;;;;;;;;;;6256128;28;20847;-68
2022/11/30 13:31:53;;;;;;;74.97;23.83;;;;;;;;;;6257564;28;20151;-63
2022/11/30 13:35:30;;;;;;;69.25;23.30;;;;;;;;;;6256293;28;20100;-64
2022/11/30 13:38:31;;;;;;;85.63;27.60;;;;;;;;;;6258929;28;20190;-65
2022/11/30 13:41:32;;;;;;;62.78;20.95;;;;;;;;;;6259768;28;20052;-64
2022/11/30 13:44:36;;;;;;;67.57;22.90;;;;;;;;;;6259594;28;20041;-67
2022/11/30 13:47:38;;;;;;;66.00;22.35;;;;;;;;;;6258066;28;20029;-74
2022/11/30 13:50:39;;;;;;;69.85;23.08;;;;;;;;;;6258405;28;20794;-71
2022/11/30 13:53:40;;;;;;;70.18;23.83;;;;;;;;;;6256799;28;20045;-67
2022/11/30 13:56:40;;;;;;;56.03;19.90;;;;;;;;;;6254478;28;20191;-62
2022/11/30 13:59:47;;;;;;;73.13;24.27;;;;;;;;;;6255702;28;20098;-74
2022/11/30 14:02:52;;;;;;;76.50;25.40;;;;;;;;;;6258545;28;20048;-74
2022/11/30 14:05:58;;;;;;;61.47;20.35;;;;;;;;;;6254040;28;20171;-61
2022/11/30 14:08:59;;;;;;;63.30;22.90;;;;;;;;;;6256086;28;20139;-73
2022/11/30 14:12:31;;;;;;;73.32;24.38;;;;;;;;;;6259805;28;20421;-74
2022/11/30 14:15:38;;;;;;;70.57;22.80;;;;;;;;;;6255939;28;20053;-74
2022/11/30 14:18:43;;;;;;;60.53;22.98;;;;;;;;;;6255835;28;20045;-69
2022/11/30 14:21:44;;;;;;;71.93;23.77;;;;;;;;;;6261861;28;20044;-73
2022/11/30 14:24:47;;;;;;;67.03;22.50;;;;;;;;;;6260689;28;20064;-74
2022/11/30 14:27:54;;;;;;;66.70;23.02;;;;;;;;;;6261423;28;20427;-72
2022/11/30 14:30:55;;;;;;;69.07;22.52;;;;;;;;;;6258577;28;20059;-65
2022/11/30 14:34:07;;;;;;;62.63;20.27;;;;;;;;;;6263679;28;20127;-74
2022/11/30 14:37:32;;;;;;;;;;;;;;;;;;6261472;28;20080;-74
2022/11/30 14:40:32;;;;;;;62.40;19.70;;;;;;;;;;6253995;28;19921;-71
2022/11/30 14:43:33;;;;;;;67.65;21.67;;;;;;;;;;6267602;28;20454;-68
2022/11/30 14:46:34;;;;;;;71.95;22.27;;;;;;;;;;6266208;28;20136;-72
2022/11/30 14:49:35;;;;;;;77.72;24.27;;;;;;;;;;6268047;28;20503;-73
2022/11/30 14:53:06;;;;;;;67.05;23.95;;;;;;;;;;6269879;28;20072;-66
2022/11/30 14:56:23;;;;;;;64.13;21.42;;;;;;;;;;6265116;28;20037;-67
2022/11/30 14:59:46;;;;;;;82.32;26.75;;;;;;;;;;6265148;28;20754;-61
2022/11/30 15:02:48;;;;;;;77.47;25.52;;;;;;;;;;6248240;28;20097;-63
2022/11/30 15:05:52;;;;;;;83.65;27.60;;;;;;;;;;6266064;28;20139;-74
2022/11/30 15:08:55;;;;;;;82.95;30.25;;;;;;;;;;6255482;28;20424;-67
2022/11/30 15:11:57;;;;;;;77.72;25.83;;;;;;;;;;6255024;28;20037;-73
2022/11/30 15:15:16;;;;;;;83.15;26.52;;;;;;;;;;6253385;28;20055;-69
2022/11/30 15:18:19;;;;;;;76.20;27.27;;;;;;;;;;6260311;28;20051;-66
2022/11/30 15:21:30;;;;;;;71.00;23.75;;;;;;;;;;6255369;28;21209;-67
2022/11/30 15:24:31;;;;;;;84.40;28.10;;;;;;;;;;6252129;28;20045;-63
2022/11/30 15:27:32;;;;;;;82.85;28.40;;;;;;;;;;6255324;28;20055;-74
2022/11/30 15:30:39;;;;;;;77.97;28.13;;;;;;;;;;6257160;28;20044;-70
2022/11/30 15:33:43;;;;;;;70.65;25.35;;;;;;;;;;6253596;28;20052;-72
2022/11/30 15:36:45;;;;;;;85.43;27.08;;;;;;;;;;6254879;28;20049;-69
2022/11/30 15:39:53;;;;;;;81.40;27.48;;;;;;;;;;6266037;28;20617;-73
2022/11/30 15:42:53;;;;;;;81.47;26.65;;;;;;;;;;6260656;28;20514;-73
2022/11/30 15:45:58;;;;;;;83.30;27.08;;;;;;;;;;6261778;28;20045;-74
2022/11/30 15:49:12;;;;;;;75.47;25.65;;;;;;;;;;6266763;28;20099;-70
2022/11/30 15:52:16;;;;;;;108.20;33.22;;;;;;;;;;6257572;28;20049;-70
2022/11/30 15:55:45;;;;;;;118.90;33.63;;;;;;;;;;6256659;28;20045;-66
2022/11/30 15:59:06;;;;;;;91.75;28.25;;;;;;;;;;6265186;28;20052;-65
2022/11/30 16:02:29;;;;;;;106.00;39.85;;;;;;;;;;6264916;28;20049;-66
2022/11/30 16:05:30;;;;;;;84.47;26.85;;;;;;;;;;6267122;28;20490;-70
2022/11/30 16:08:31;;;;;;;99.47;31.02;;;;;;;;;;6267844;28;20048;-72
2022/11/30 16:11:33;;;;;;;102.65;34.00;;;;;;;;;;6259291;28;20055;-66
2022/11/30 16:14:34;;;;;;;106.43;31.55;;;;;;;;;;6264007;28;20045;-72
2022/11/30 16:17:34;;;;;;;81.07;25.90;;;;;;;;;;6267373;28;20044;-61
2022/11/30 16:20:35;;;;;;;74.05;24.70;;;;;;;;;;6264617;28;20151;-63
2022/11/30 16:23:35;;;;;;;83.10;25.75;;;;;;;;;;6262950;28;20052;-70
2022/11/30 16:26:36;;;;;;;91.95;29.90;;;;;;;;;;6269193;28;20053;-70
2022/11/30 16:29:37;;;;;;;90.53;28.08;;;;;;;;;;6267078;28;20086;-63
2022/11/30 16:32:37;;;;;;;86.32;27.05;;;;;;;;;;6245922;28;20488;-62
2022/11/30 16:35:46;;;;;;;93.95;27.88;;;;;;;;;;6264034;28;20055;-67
2022/11/30 16:38:48;;;;;;;81.00;25.83;;;;;;;;;;6270587;28;20056;-68
2022/11/30 16:41:49;;;;;;;93.07;28.25;;;;;;;;;;6266704;28;20084;-61
2022/11/30 16:44:50;;;;;;;98.05;29.08;;;;;;;;;;6263204;28;20553;-66
2022/11/30 16:47:51;;;;;;;89.47;29.17;;;;;;;;;;6266520;28;20053;-71
2022/11/30 16:50:52;;;;;;;100.65;31.75;;;;;;;;;;6261463;28;20143;-63
2022/11/30 16:53:52;;;;;;;110.88;34.60;;;;;;;;;;6263926;28;20495;-67
2022/11/30 16:56:53;;;;;;;86.47;28.98;;;;;;;;;;6267789;28;20201;-62
2022/11/30 16:59:54;;;;;;;96.38;28.90;;;;;;;;;;6271297;28;20048;-62
2022/11/30 17:02:58;;;;;;;105.40;32.35;;;;;;;;;;6268083;28;20087;-70
2022/11/30 17:05:59;;;;;;;108.63;30.88;;;;;;;;;;6269554;28;20057;-66
2022/11/30 17:08:59;;;;;;;105.47;32.60;;;;;;;;;;6251615;28;20160;-69
2022/11/30 17:12:00;;;;;;;99.15;31.27;;;;;;;;;;6266125;28;20067;-67
2022/11/30 17:15:02;;;;;;;96.15;29.75;;;;;;;;;;6269675;28;20202;-68
2022/11/30 17:18:03;;;;;;;96.32;29.52;;;;;;;;;;6264868;28;20044;-68
2022/11/30 17:21:04;;;;;;;103.38;30.77;;;;;;;;;;6275037;28;20412;-69
2022/11/30 17:24:05;;;;;;;103.03;31.45;;;;;;;;;;6270262;28;20070;-68
2022/11/30 17:27:06;;;;;;;111.03;34.22;;;;;;;;;;6267746;28;20070;-72
2022/11/30 17:30:08;;;;;;;104.05;35.20;;;;;;;;;;6265941;28;20052;-68
2022/11/30 17:33:08;;;;;;;103.63;31.10;;;;;;;;;;6269638;28;20049;-69
2022/11/30 17:36:14;;;;;;;90.07;28.75;;;;;;;;;;6264651;28;20459;-72
2022/11/30 17:39:15;;;;;;;97.15;30.45;;;;;;;;;;6270200;28;20052;-61
2022/11/30 17:42:16;;;;;;;110.97;31.63;;;;;;;;;;6264707;28;20455;-73
2022/11/30 17:45:16;;;;;;;101.70;30.20;;;;;;;;;;6271850;28;20090;-65
2022/11/30 17:48:17;;;;;;;115.20;34.30;;;;;;;;;;6266260;28;20056;-75
2022/11/30 17:51:18;;;;;;;111.35;32.72;;;;;;;;;;6267089;28;20098;-69